sensor_id;sensor_type;location;lat;lon;timestamp;P1;durP1;ratioP1;P2;durP2;ratioP2
52564;SDS011;38460;53.106;7.004;2023-07-02T00:01:12;8.45;;;4.18;;
52564;SDS011;38460;53.106;7.004;2023-07-02T00:03:38;6.82;;;4.38;;
52564;SDS011;38460;53.106;7.004;2023-07-02T00:06:04;9.77;;;3.88;;
52564;SDS011;38460;53.106;7.004;2023-07-02T00:08:30;10.57;;;4.65;;
52564;SDS011;38460;53.106;7.004;2023-07-02T00:10:56;11.05;;;4.80;;
52564;SDS011;38460;53.106;7.004;2023-07-02T00:13:21;8.68;;;4.15;;
52564;SDS011;38460;53.106;7.004;2023-07-02T00:15:47;9.10;;;4.38;;
52564;SDS011;38460;53.106;7.004;2023-07-02T00:18:13;9.43;;;4.75;;
52564;SDS011;38460;53.106;7.004;2023-07-02T00:20:41;11.45;;;4.40;;
52564;SDS011;38460;53.106;7.004;2023-07-02T00:23:07;11.93;;;5.07;;
52564;SDS011;38460;53.106;7.004;2023-07-02T00:25:35;9.43;;;4.57;;
52564;SDS011;38460;53.106;7.004;2023-07-02T00:28:01;10.00;;;4.32;;
52564;SDS011;38460;53.106;7.004;2023-07-02T00:30:27;14.43;;;4.75;;
52564;SDS011;38460;53.106;7.004;2023-07-02T00:32:53;10.85;;;5.25;;
52564;SDS011;38460;53.106;7.004;2023-07-02T00:35:19;13.52;;;5.53;;
52564;SDS011;38460;53.106;7.004;2023-07-02T00:37:45;11.13;;;5.32;;
52564;SDS011;38460;53.106;7.004;2023-07-02T00:40:11;12.05;;;5.25;;
52564;SDS011;38460;53.106;7.004;2023-07-02T00:42:37;10.32;;;4.90;;
52564;SDS011;38460;53.106;7.004;2023-07-02T00:45:03;16.58;;;5.68;;
52564;SDS011;38460;53.106;7.004;2023-07-02T00:47:30;14.27;;;6.75;;
52564;SDS011;38460;53.106;7.004;2023-07-02T00:49:57;15.13;;;6.22;;
52564;SDS011;38460;53.106;7.004;2023-07-02T00:52:23;13.32;;;6.13;;
52564;SDS011;38460;53.106;7.004;2023-07-02T00:54:51;10.80;;;5.78;;
52564;SDS011;38460;53.106;7.004;2023-07-02T00:57:17;13.48;;;6.35;;
52564;SDS011;38460;53.106;7.004;2023-07-02T00:59:43;13.77;;;5.97;;
52564;SDS011;38460;53.106;7.004;2023-07-02T01:02:09;11.48;;;5.47;;
52564;SDS011;38460;53.106;7.004;2023-07-02T01:04:35;14.30;;;5.50;;
52564;SDS011;38460;53.106;7.004;2023-07-02T01:07:02;13.43;;;5.63;;
52564;SDS011;38460;53.106;7.004;2023-07-02T01:09:33;14.32;;;6.05;;
52564;SDS011;38460;53.106;7.004;2023-07-02T01:12:00;12.98;;;6.35;;
52564;SDS011;38460;53.106;7.004;2023-07-02T01:14:30;15.88;;;6.05;;
52564;SDS011;38460;53.106;7.004;2023-07-02T01:16:59;13.52;;;5.80;;
52564;SDS011;38460;53.106;7.004;2023-07-02T01:19:45;12.88;;;5.90;;
52564;SDS011;38460;53.106;7.004;2023-07-02T01:22:23;10.50;;;5.93;;
52564;SDS011;38460;53.106;7.004;2023-07-02T01:24:50;12.75;;;7.32;;
52564;SDS011;38460;53.106;7.004;2023-07-02T01:27:17;11.10;;;5.88;;
52564;SDS011;38460;53.106;7.004;2023-07-02T01:29:43;12.32;;;5.82;;
52564;SDS011;38460;53.106;7.004;2023-07-02T01:32:13;14.88;;;6.18;;
52564;SDS011;38460;53.106;7.004;2023-07-02T01:34:39;12.82;;;6.03;;
52564;SDS011;38460;53.106;7.004;2023-07-02T01:37:05;14.07;;;6.05;;
52564;SDS011;38460;53.106;7.004;2023-07-02T01:39:31;12.45;;;5.63;;
52564;SDS011;38460;53.106;7.004;2023-07-02T01:42:10;13.38;;;6.28;;
52564;SDS011;38460;53.106;7.004;2023-07-02T01:44:45;10.80;;;5.72;;
52564;SDS011;38460;53.106;7.004;2023-07-02T01:47:17;14.40;;;6.90;;
52564;SDS011;38460;53.106;7.004;2023-07-02T01:49:44;10.40;;;5.95;;
52564;SDS011;38460;53.106;7.004;2023-07-02T01:52:10;14.77;;;6.95;;
52564;SDS011;38460;53.106;7.004;2023-07-02T01:54:36;12.93;;;6.22;;
52564;SDS011;38460;53.106;7.004;2023-07-02T01:57:02;18.42;;;6.47;;
52564;SDS011;38460;53.106;7.004;2023-07-02T01:59:29;17.77;;;6.93;;
52564;SDS011;38460;53.106;7.004;2023-07-02T02:01:54;13.48;;;7.03;;
52564;SDS011;38460;53.106;7.004;2023-07-02T02:04:20;16.23;;;6.57;;
52564;SDS011;38460;53.106;7.004;2023-07-02T02:06:46;13.93;;;7.07;;
52564;SDS011;38460;53.106;7.004;2023-07-02T02:09:11;15.32;;;7.00;;
52564;SDS011;38460;53.106;7.004;2023-07-02T02:11:41;22.00;;;8.27;;
52564;SDS011;38460;53.106;7.004;2023-07-02T02:14:08;19.20;;;6.38;;
52564;SDS011;38460;53.106;7.004;2023-07-02T02:16:34;13.00;;;6.35;;
52564;SDS011;38460;53.106;7.004;2023-07-02T02:19:00;14.95;;;7.10;;
52564;SDS011;38460;53.106;7.004;2023-07-02T02:21:26;15.85;;;6.50;;
52564;SDS011;38460;53.106;7.004;2023-07-02T02:23:52;20.45;;;7.03;;
52564;SDS011;38460;53.106;7.004;2023-07-02T02:26:18;12.18;;;6.15;;
52564;SDS011;38460;53.106;7.004;2023-07-02T02:28:46;16.92;;;6.25;;
52564;SDS011;38460;53.106;7.004;2023-07-02T02:31:13;13.07;;;6.57;;
52564;SDS011;38460;53.106;7.004;2023-07-02T02:33:39;16.98;;;7.35;;
52564;SDS011;38460;53.106;7.004;2023-07-02T02:36:05;15.10;;;7.32;;
52564;SDS011;38460;53.106;7.004;2023-07-02T02:38:31;15.38;;;6.72;;
52564;SDS011;38460;53.106;7.004;2023-07-02T02:40:57;14.43;;;6.70;;
52564;SDS011;38460;53.106;7.004;2023-07-02T02:43:22;14.05;;;6.85;;
52564;SDS011;38460;53.106;7.004;2023-07-02T02:45:48;13.05;;;6.63;;
52564;SDS011;38460;53.106;7.004;2023-07-02T02:48:14;13.45;;;6.68;;
52564;SDS011;38460;53.106;7.004;2023-07-02T02:50:39;19.13;;;7.15;;
52564;SDS011;38460;53.106;7.004;2023-07-02T02:53:08;17.38;;;7.32;;
52564;SDS011;38460;53.106;7.004;2023-07-02T02:55:35;16.98;;;7.97;;
52564;SDS011;38460;53.106;7.004;2023-07-02T02:58:01;17.23;;;6.80;;
52564;SDS011;38460;53.106;7.004;2023-07-02T03:00:27;19.40;;;6.55;;
52564;SDS011;38460;53.106;7.004;2023-07-02T03:02:52;19.77;;;7.50;;
52564;SDS011;38460;53.106;7.004;2023-07-02T03:05:18;15.15;;;6.90;;
52564;SDS011;38460;53.106;7.004;2023-07-02T03:07:44;15.30;;;7.18;;
52564;SDS011;38460;53.106;7.004;2023-07-02T03:10:10;14.27;;;6.97;;
52564;SDS011;38460;53.106;7.004;2023-07-02T03:12:35;12.88;;;7.20;;
52564;SDS011;38460;53.106;7.004;2023-07-02T03:15:01;16.48;;;6.78;;
52564;SDS011;38460;53.106;7.004;2023-07-02T03:17:27;15.10;;;6.68;;
52564;SDS011;38460;53.106;7.004;2023-07-02T03:19:53;18.42;;;7.22;;
52564;SDS011;38460;53.106;7.004;2023-07-02T03:22:19;19.92;;;7.32;;
52564;SDS011;38460;53.106;7.004;2023-07-02T03:24:44;16.08;;;7.30;;
52564;SDS011;38460;53.106;7.004;2023-07-02T03:27:10;19.40;;;7.57;;
52564;SDS011;38460;53.106;7.004;2023-07-02T03:29:36;13.52;;;7.20;;
52564;SDS011;38460;53.106;7.004;2023-07-02T03:32:03;15.95;;;7.25;;
52564;SDS011;38460;53.106;7.004;2023-07-02T03:34:29;17.67;;;7.97;;
52564;SDS011;38460;53.106;7.004;2023-07-02T03:36:55;24.00;;;7.72;;
52564;SDS011;38460;53.106;7.004;2023-07-02T03:39:21;15.48;;;6.65;;
52564;SDS011;38460;53.106;7.004;2023-07-02T03:41:47;15.68;;;7.35;;
52564;SDS011;38460;53.106;7.004;2023-07-02T03:44:13;15.27;;;7.80;;
52564;SDS011;38460;53.106;7.004;2023-07-02T03:46:38;17.10;;;6.93;;
52564;SDS011;38460;53.106;7.004;2023-07-02T03:49:04;18.83;;;7.15;;
52564;SDS011;38460;53.106;7.004;2023-07-02T03:51:30;23.40;;;7.93;;
52564;SDS011;38460;53.106;7.004;2023-07-02T03:53:57;19.27;;;7.65;;
52564;SDS011;38460;53.106;7.004;2023-07-02T03:56:23;19.63;;;7.30;;
52564;SDS011;38460;53.106;7.004;2023-07-02T03:58:49;21.45;;;7.88;;
52564;SDS011;38460;53.106;7.004;2023-07-02T04:01:15;18.35;;;7.75;;
52564;SDS011;38460;53.106;7.004;2023-07-02T04:03:51;16.95;;;6.95;;
52564;SDS011;38460;53.106;7.004;2023-07-02T04:06:18;19.63;;;8.85;;
52564;SDS011;38460;53.106;7.004;2023-07-02T04:08:44;20.90;;;8.18;;
52564;SDS011;38460;53.106;7.004;2023-07-02T04:11:10;18.58;;;7.97;;
52564;SDS011;38460;53.106;7.004;2023-07-02T04:13:37;16.73;;;7.93;;
52564;SDS011;38460;53.106;7.004;2023-07-02T04:16:04;16.55;;;7.28;;
52564;SDS011;38460;53.106;7.004;2023-07-02T04:18:30;13.77;;;7.60;;
52564;SDS011;38460;53.106;7.004;2023-07-02T04:20:56;15.15;;;7.82;;
52564;SDS011;38460;53.106;7.004;2023-07-02T04:23:23;26.70;;;9.25;;
52564;SDS011;38460;53.106;7.004;2023-07-02T04:25:49;18.63;;;7.95;;
52564;SDS011;38460;53.106;7.004;2023-07-02T04:28:15;17.60;;;7.10;;
52564;SDS011;38460;53.106;7.004;2023-07-02T04:30:42;18.40;;;7.20;;
52564;SDS011;38460;53.106;7.004;2023-07-02T04:33:08;18.05;;;8.38;;
52564;SDS011;38460;53.106;7.004;2023-07-02T04:35:33;19.88;;;7.60;;
52564;SDS011;38460;53.106;7.004;2023-07-02T04:38:00;20.58;;;7.38;;
52564;SDS011;38460;53.106;7.004;2023-07-02T04:40:26;18.95;;;9.43;;
52564;SDS011;38460;53.106;7.004;2023-07-02T04:42:52;19.95;;;7.88;;
52564;SDS011;38460;53.106;7.004;2023-07-02T04:45:23;17.30;;;8.45;;
52564;SDS011;38460;53.106;7.004;2023-07-02T04:47:50;17.40;;;7.20;;
52564;SDS011;38460;53.106;7.004;2023-07-02T04:50:16;18.10;;;7.15;;
52564;SDS011;38460;53.106;7.004;2023-07-02T04:52:43;22.52;;;8.07;;
52564;SDS011;38460;53.106;7.004;2023-07-02T04:55:09;18.70;;;7.55;;
52564;SDS011;38460;53.106;7.004;2023-07-02T04:57:34;14.85;;;7.55;;
52564;SDS011;38460;53.106;7.004;2023-07-02T05:00:00;19.85;;;8.13;;
52564;SDS011;38460;53.106;7.004;2023-07-02T05:02:28;14.73;;;7.50;;
52564;SDS011;38460;53.106;7.004;2023-07-02T05:04:54;12.02;;;6.78;;
52564;SDS011;38460;53.106;7.004;2023-07-02T05:07:20;15.63;;;7.88;;
52564;SDS011;38460;53.106;7.004;2023-07-02T05:09:45;14.50;;;7.07;;
52564;SDS011;38460;53.106;7.004;2023-07-02T05:12:13;19.42;;;7.68;;
52564;SDS011;38460;53.106;7.004;2023-07-02T05:14:39;20.23;;;9.68;;
52564;SDS011;38460;53.106;7.004;2023-07-02T05:17:05;20.85;;;7.68;;
52564;SDS011;38460;53.106;7.004;2023-07-02T05:19:30;18.25;;;7.68;;
52564;SDS011;38460;53.106;7.004;2023-07-02T05:21:56;18.60;;;7.00;;
52564;SDS011;38460;53.106;7.004;2023-07-02T05:24:22;17.73;;;7.72;;
52564;SDS011;38460;53.106;7.004;2023-07-02T05:26:47;15.40;;;7.43;;
52564;SDS011;38460;53.106;7.004;2023-07-02T05:29:15;17.20;;;7.70;;
52564;SDS011;38460;53.106;7.004;2023-07-02T05:31:41;18.65;;;7.78;;
52564;SDS011;38460;53.106;7.004;2023-07-02T05:34:07;15.80;;;8.20;;
52564;SDS011;38460;53.106;7.004;2023-07-02T05:36:33;15.75;;;7.75;;
52564;SDS011;38460;53.106;7.004;2023-07-02T05:38:59;17.88;;;7.30;;
52564;SDS011;38460;53.106;7.004;2023-07-02T05:41:25;14.35;;;7.55;;
52564;SDS011;38460;53.106;7.004;2023-07-02T05:43:56;14.52;;;7.43;;
52564;SDS011;38460;53.106;7.004;2023-07-02T05:46:22;19.40;;;7.80;;
52564;SDS011;38460;53.106;7.004;2023-07-02T05:48:48;20.23;;;7.95;;
52564;SDS011;38460;53.106;7.004;2023-07-02T05:51:13;15.50;;;6.88;;
52564;SDS011;38460;53.106;7.004;2023-07-02T05:53:44;17.52;;;8.25;;
52564;SDS011;38460;53.106;7.004;2023-07-02T05:56:10;12.50;;;6.85;;
52564;SDS011;38460;53.106;7.004;2023-07-02T05:58:36;18.75;;;7.53;;
52564;SDS011;38460;53.106;7.004;2023-07-02T06:01:01;16.95;;;6.38;;
52564;SDS011;38460;53.106;7.004;2023-07-02T06:03:27;17.85;;;6.22;;
52564;SDS011;38460;53.106;7.004;2023-07-02T06:05:53;17.90;;;6.75;;
52564;SDS011;38460;53.106;7.004;2023-07-02T06:08:18;16.02;;;6.68;;
52564;SDS011;38460;53.106;7.004;2023-07-02T06:10:45;13.88;;;5.88;;
52564;SDS011;38460;53.106;7.004;2023-07-02T06:13:11;15.13;;;6.25;;
52564;SDS011;38460;53.106;7.004;2023-07-02T06:15:37;13.52;;;6.97;;
52564;SDS011;38460;53.106;7.004;2023-07-02T06:18:03;14.95;;;5.78;;
52564;SDS011;38460;53.106;7.004;2023-07-02T06:20:29;13.32;;;5.38;;
52564;SDS011;38460;53.106;7.004;2023-07-02T06:22:54;13.90;;;6.78;;
52564;SDS011;38460;53.106;7.004;2023-07-02T06:25:20;17.30;;;6.03;;
52564;SDS011;38460;53.106;7.004;2023-07-02T06:27:46;15.55;;;6.22;;
52564;SDS011;38460;53.106;7.004;2023-07-02T06:30:11;13.27;;;5.97;;
52564;SDS011;38460;53.106;7.004;2023-07-02T06:32:37;14.07;;;6.47;;
52564;SDS011;38460;53.106;7.004;2023-07-02T06:35:03;18.75;;;6.05;;
52564;SDS011;38460;53.106;7.004;2023-07-02T06:37:31;16.27;;;6.78;;
52564;SDS011;38460;53.106;7.004;2023-07-02T06:39:57;11.35;;;5.95;;
52564;SDS011;38460;53.106;7.004;2023-07-02T06:42:24;14.38;;;5.45;;
52564;SDS011;38460;53.106;7.004;2023-07-02T06:44:50;16.92;;;5.93;;
52564;SDS011;38460;53.106;7.004;2023-07-02T06:47:16;17.13;;;5.25;;
52564;SDS011;38460;53.106;7.004;2023-07-02T06:49:42;13.45;;;5.18;;
52564;SDS011;38460;53.106;7.004;2023-07-02T06:52:08;16.10;;;5.88;;
52564;SDS011;38460;53.106;7.004;2023-07-02T06:54:33;12.68;;;5.28;;
52564;SDS011;38460;53.106;7.004;2023-07-02T06:56:59;12.18;;;5.22;;
52564;SDS011;38460;53.106;7.004;2023-07-02T06:59:25;13.02;;;5.63;;
52564;SDS011;38460;53.106;7.004;2023-07-02T07:01:51;10.68;;;4.80;;
52564;SDS011;38460;53.106;7.004;2023-07-02T07:04:17;16.63;;;5.90;;
52564;SDS011;38460;53.106;7.004;2023-07-02T07:06:43;11.60;;;5.45;;
52564;SDS011;38460;53.106;7.004;2023-07-02T07:09:09;9.95;;;5.07;;
52564;SDS011;38460;53.106;7.004;2023-07-02T07:11:35;11.15;;;5.72;;
52564;SDS011;38460;53.106;7.004;2023-07-02T07:14:01;13.23;;;5.35;;
52564;SDS011;38460;53.106;7.004;2023-07-02T07:16:27;12.57;;;5.40;;
52564;SDS011;38460;53.106;7.004;2023-07-02T07:18:53;13.43;;;5.10;;
52564;SDS011;38460;53.106;7.004;2023-07-02T07:21:19;11.95;;;4.95;;
52564;SDS011;38460;53.106;7.004;2023-07-02T07:23:44;10.52;;;4.93;;
52564;SDS011;38460;53.106;7.004;2023-07-02T07:26:10;12.90;;;5.50;;
52564;SDS011;38460;53.106;7.004;2023-07-02T07:28:36;11.07;;;4.97;;
52564;SDS011;38460;53.106;7.004;2023-07-02T07:31:02;7.95;;;3.72;;
52564;SDS011;38460;53.106;7.004;2023-07-02T07:33:27;15.38;;;4.82;;
52564;SDS011;38460;53.106;7.004;2023-07-02T07:35:53;10.07;;;5.13;;
52564;SDS011;38460;53.106;7.004;2023-07-02T07:38:19;8.32;;;3.63;;
52564;SDS011;38460;53.106;7.004;2023-07-02T07:40:45;7.65;;;3.15;;
52564;SDS011;38460;53.106;7.004;2023-07-02T07:43:11;7.47;;;3.13;;
52564;SDS011;38460;53.106;7.004;2023-07-02T07:45:37;9.27;;;3.38;;
52564;SDS011;38460;53.106;7.004;2023-07-02T07:48:04;10.65;;;3.15;;
52564;SDS011;38460;53.106;7.004;2023-07-02T07:50:30;6.55;;;2.90;;
52564;SDS011;38460;53.106;7.004;2023-07-02T07:52:56;10.25;;;3.45;;
52564;SDS011;38460;53.106;7.004;2023-07-02T07:55:22;8.68;;;3.45;;
52564;SDS011;38460;53.106;7.004;2023-07-02T07:57:47;11.70;;;4.00;;
52564;SDS011;38460;53.106;7.004;2023-07-02T08:00:13;12.52;;;3.72;;
52564;SDS011;38460;53.106;7.004;2023-07-02T08:02:39;5.72;;;3.42;;
52564;SDS011;38460;53.106;7.004;2023-07-02T08:05:05;7.88;;;3.65;;
52564;SDS011;38460;53.106;7.004;2023-07-02T08:07:32;9.70;;;2.80;;
52564;SDS011;38460;53.106;7.004;2023-07-02T08:09:58;7.15;;;3.13;;
52564;SDS011;38460;53.106;7.004;2023-07-02T08:12:24;5.85;;;2.90;;
52564;SDS011;38460;53.106;7.004;2023-07-02T08:14:51;5.47;;;2.30;;
52564;SDS011;38460;53.106;7.004;2023-07-02T08:17:17;7.82;;;2.50;;
52564;SDS011;38460;53.106;7.004;2023-07-02T08:19:43;8.40;;;2.75;;
52564;SDS011;38460;53.106;7.004;2023-07-02T08:22:09;6.10;;;2.88;;
52564;SDS011;38460;53.106;7.004;2023-07-02T08:24:35;6.88;;;2.78;;
52564;SDS011;38460;53.106;7.004;2023-07-02T08:27:00;5.50;;;2.45;;
52564;SDS011;38460;53.106;7.004;2023-07-02T08:29:28;6.28;;;2.50;;
52564;SDS011;38460;53.106;7.004;2023-07-02T08:31:57;7.85;;;2.95;;
52564;SDS011;38460;53.106;7.004;2023-07-02T08:34:23;7.25;;;2.92;;
52564;SDS011;38460;53.106;7.004;2023-07-02T08:36:49;6.65;;;2.63;;
52564;SDS011;38460;53.106;7.004;2023-07-02T08:39:17;7.93;;;2.92;;
52564;SDS011;38460;53.106;7.004;2023-07-02T08:41:46;5.45;;;2.53;;
52564;SDS011;38460;53.106;7.004;2023-07-02T08:44:13;7.78;;;2.78;;
52564;SDS011;38460;53.106;7.004;2023-07-02T08:46:41;7.78;;;2.38;;
52564;SDS011;38460;53.106;7.004;2023-07-02T08:49:07;5.90;;;2.15;;
52564;SDS011;38460;53.106;7.004;2023-07-02T08:51:33;7.47;;;2.70;;
52564;SDS011;38460;53.106;7.004;2023-07-02T08:53:59;6.22;;;3.17;;
52564;SDS011;38460;53.106;7.004;2023-07-02T08:56:26;8.38;;;3.00;;
52564;SDS011;38460;53.106;7.004;2023-07-02T08:58:52;11.50;;;2.78;;
52564;SDS011;38460;53.106;7.004;2023-07-02T09:01:18;6.93;;;2.85;;
52564;SDS011;38460;53.106;7.004;2023-07-02T09:03:44;8.82;;;3.20;;
52564;SDS011;38460;53.106;7.004;2023-07-02T09:06:10;11.52;;;3.30;;
52564;SDS011;38460;53.106;7.004;2023-07-02T09:08:37;7.20;;;3.28;;
52564;SDS011;38460;53.106;7.004;2023-07-02T09:13:45;7.85;;;3.00;;
52564;SDS011;38460;53.106;7.004;2023-07-02T09:16:22;11.88;;;3.28;;
52564;SDS011;38460;53.106;7.004;2023-07-02T09:21:48;10.13;;;3.20;;
52564;SDS011;38460;53.106;7.004;2023-07-02T09:24:24;7.00;;;3.30;;
52564;SDS011;38460;53.106;7.004;2023-07-02T09:26:51;9.65;;;4.00;;
52564;SDS011;38460;53.106;7.004;2023-07-02T09:29:20;8.60;;;3.17;;
52564;SDS011;38460;53.106;7.004;2023-07-02T09:31:48;11.07;;;3.63;;
52564;SDS011;38460;53.106;7.004;2023-07-02T09:34:14;8.45;;;3.53;;
52564;SDS011;38460;53.106;7.004;2023-07-02T09:36:40;8.25;;;3.40;;
52564;SDS011;38460;53.106;7.004;2023-07-02T09:39:08;8.80;;;3.45;;
52564;SDS011;38460;53.106;7.004;2023-07-02T09:41:41;10.02;;;3.92;;
52564;SDS011;38460;53.106;7.004;2023-07-02T09:44:08;6.72;;;3.10;;
52564;SDS011;38460;53.106;7.004;2023-07-02T09:46:41;6.72;;;3.53;;
52564;SDS011;38460;53.106;7.004;2023-07-02T09:49:11;8.88;;;3.92;;
52564;SDS011;38460;53.106;7.004;2023-07-02T09:51:40;9.95;;;4.28;;
52564;SDS011;38460;53.106;7.004;2023-07-02T09:54:07;8.98;;;4.15;;
52564;SDS011;38460;53.106;7.004;2023-07-02T09:56:33;8.98;;;3.60;;
52564;SDS011;38460;53.106;7.004;2023-07-02T09:58:58;11.50;;;3.90;;
52564;SDS011;38460;53.106;7.004;2023-07-02T10:01:24;10.13;;;3.67;;
52564;SDS011;38460;53.106;7.004;2023-07-02T10:03:50;12.07;;;4.00;;
52564;SDS011;38460;53.106;7.004;2023-07-02T10:06:16;10.02;;;4.63;;
52564;SDS011;38460;53.106;7.004;2023-07-02T10:08:51;8.40;;;3.35;;
52564;SDS011;38460;53.106;7.004;2023-07-02T10:11:21;6.28;;;3.17;;
52564;SDS011;38460;53.106;7.004;2023-07-02T10:13:59;7.75;;;3.53;;
52564;SDS011;38460;53.106;7.004;2023-07-02T10:16:25;8.50;;;3.10;;
52564;SDS011;38460;53.106;7.004;2023-07-02T10:18:53;6.85;;;3.78;;
52564;SDS011;38460;53.106;7.004;2023-07-02T10:21:19;7.97;;;3.50;;
52564;SDS011;38460;53.106;7.004;2023-07-02T10:23:45;8.80;;;3.55;;
52564;SDS011;38460;53.106;7.004;2023-07-02T10:26:15;9.15;;;2.97;;
52564;SDS011;38460;53.106;7.004;2023-07-02T10:28:43;7.25;;;3.45;;
52564;SDS011;38460;53.106;7.004;2023-07-02T10:31:21;8.00;;;2.88;;
52564;SDS011;38460;53.106;7.004;2023-07-02T10:33:47;11.50;;;3.58;;
52564;SDS011;38460;53.106;7.004;2023-07-02T10:36:19;9.15;;;3.25;;
52564;SDS011;38460;53.106;7.004;2023-07-02T10:38:46;7.45;;;2.75;;
52564;SDS011;38460;53.106;7.004;2023-07-02T10:41:22;6.85;;;2.97;;
52564;SDS011;38460;53.106;7.004;2023-07-02T10:43:49;8.25;;;3.30;;
52564;SDS011;38460;53.106;7.004;2023-07-02T10:46:21;6.43;;;3.03;;
52564;SDS011;38460;53.106;7.004;2023-07-02T10:48:51;7.30;;;3.45;;
52564;SDS011;38460;53.106;7.004;2023-07-02T10:51:17;8.10;;;2.95;;
52564;SDS011;38460;53.106;7.004;2023-07-02T10:53:43;6.28;;;2.60;;
52564;SDS011;38460;53.106;7.004;2023-07-02T10:56:15;5.72;;;2.33;;
52564;SDS011;38460;53.106;7.004;2023-07-02T10:58:41;7.32;;;3.75;;
52564;SDS011;38460;53.106;7.004;2023-07-02T11:01:08;7.00;;;2.63;;
52564;SDS011;38460;53.106;7.004;2023-07-02T11:03:34;8.65;;;3.45;;
52564;SDS011;38460;53.106;7.004;2023-07-02T11:05:59;8.05;;;2.92;;
52564;SDS011;38460;53.106;7.004;2023-07-02T11:08:34;7.70;;;3.13;;
52564;SDS011;38460;53.106;7.004;2023-07-02T11:11:07;7.80;;;2.70;;
52564;SDS011;38460;53.106;7.004;2023-07-02T11:13:33;9.27;;;3.20;;
52564;SDS011;38460;53.106;7.004;2023-07-02T11:15:59;7.05;;;3.13;;
52564;SDS011;38460;53.106;7.004;2023-07-02T11:18:29;7.55;;;2.70;;
52564;SDS011;38460;53.106;7.004;2023-07-02T11:20:56;9.50;;;3.20;;
52564;SDS011;38460;53.106;7.004;2023-07-02T11:23:23;7.22;;;2.80;;
52564;SDS011;38460;53.106;7.004;2023-07-02T11:25:56;9.98;;;2.80;;
52564;SDS011;38460;53.106;7.004;2023-07-02T11:28:23;7.28;;;2.83;;
52564;SDS011;38460;53.106;7.004;2023-07-02T11:30:49;5.10;;;2.60;;
52564;SDS011;38460;53.106;7.004;2023-07-02T11:33:15;9.57;;;3.28;;
52564;SDS011;38460;53.106;7.004;2023-07-02T11:35:41;6.80;;;2.72;;
52564;SDS011;38460;53.106;7.004;2023-07-02T11:38:08;8.43;;;2.65;;
52564;SDS011;38460;53.106;7.004;2023-07-02T11:40:38;11.45;;;2.90;;
52564;SDS011;38460;53.106;7.004;2023-07-02T11:43:05;6.57;;;2.78;;
52564;SDS011;38460;53.106;7.004;2023-07-02T11:45:31;7.15;;;2.95;;
52564;SDS011;38460;53.106;7.004;2023-07-02T11:47:57;7.47;;;3.80;;
52564;SDS011;38460;53.106;7.004;2023-07-02T11:50:23;7.88;;;2.67;;
52564;SDS011;38460;53.106;7.004;2023-07-02T11:52:48;6.18;;;2.65;;
52564;SDS011;38460;53.106;7.004;2023-07-02T11:55:14;8.90;;;3.33;;
52564;SDS011;38460;53.106;7.004;2023-07-02T11:57:40;6.35;;;2.88;;
52564;SDS011;38460;53.106;7.004;2023-07-02T12:00:06;8.57;;;3.30;;
52564;SDS011;38460;53.106;7.004;2023-07-02T12:02:32;7.40;;;3.08;;
52564;SDS011;38460;53.106;7.004;2023-07-02T12:04:57;9.02;;;3.40;;
52564;SDS011;38460;53.106;7.004;2023-07-02T12:07:23;7.28;;;3.03;;
52564;SDS011;38460;53.106;7.004;2023-07-02T12:09:50;8.32;;;2.70;;
52564;SDS011;38460;53.106;7.004;2023-07-02T12:12:16;7.20;;;3.17;;
52564;SDS011;38460;53.106;7.004;2023-07-02T12:14:41;5.35;;;2.55;;
52564;SDS011;38460;53.106;7.004;2023-07-02T12:17:08;8.65;;;2.60;;
52564;SDS011;38460;53.106;7.004;2023-07-02T12:19:38;8.93;;;2.90;;
52564;SDS011;38460;53.106;7.004;2023-07-02T12:22:04;9.23;;;2.55;;
52564;SDS011;38460;53.106;7.004;2023-07-02T12:24:30;12.38;;;3.00;;
52564;SDS011;38460;53.106;7.004;2023-07-02T12:26:56;7.55;;;2.33;;
52564;SDS011;38460;53.106;7.004;2023-07-02T12:29:21;6.60;;;2.50;;
52564;SDS011;38460;53.106;7.004;2023-07-02T12:31:47;9.25;;;2.80;;
52564;SDS011;38460;53.106;7.004;2023-07-02T12:34:13;5.53;;;2.25;;
52564;SDS011;38460;53.106;7.004;2023-07-02T12:36:39;6.03;;;2.40;;
52564;SDS011;38460;53.106;7.004;2023-07-02T12:39:05;5.85;;;2.55;;
52564;SDS011;38460;53.106;7.004;2023-07-02T12:41:31;9.45;;;2.83;;
52564;SDS011;38460;53.106;7.004;2023-07-02T12:43:57;7.05;;;2.33;;
52564;SDS011;38460;53.106;7.004;2023-07-02T12:46:22;6.70;;;2.40;;
52564;SDS011;38460;53.106;7.004;2023-07-02T12:48:48;6.78;;;2.33;;
52564;SDS011;38460;53.106;7.004;2023-07-02T12:51:14;5.32;;;2.40;;
52564;SDS011;38460;53.106;7.004;2023-07-02T12:53:39;5.15;;;2.38;;
52564;SDS011;38460;53.106;7.004;2023-07-02T12:56:05;9.85;;;2.92;;
52564;SDS011;38460;53.106;7.004;2023-07-02T12:58:31;9.73;;;2.78;;
52564;SDS011;38460;53.106;7.004;2023-07-02T13:00:57;5.47;;;2.20;;
52564;SDS011;38460;53.106;7.004;2023-07-02T13:03:23;7.60;;;2.90;;
52564;SDS011;38460;53.106;7.004;2023-07-02T13:05:50;5.80;;;2.80;;
52564;SDS011;38460;53.106;7.004;2023-07-02T13:08:16;4.20;;;2.17;;
52564;SDS011;38460;53.106;7.004;2023-07-02T13:10:42;5.10;;;2.40;;
52564;SDS011;38460;53.106;7.004;2023-07-02T13:13:08;5.03;;;2.50;;
52564;SDS011;38460;53.106;7.004;2023-07-02T13:15:34;6.53;;;2.67;;
52564;SDS011;38460;53.106;7.004;2023-07-02T13:18:00;8.35;;;2.55;;
52564;SDS011;38460;53.106;7.004;2023-07-02T13:20:26;4.97;;;2.10;;
52564;SDS011;38460;53.106;7.004;2023-07-02T13:22:52;8.52;;;2.20;;
52564;SDS011;38460;53.106;7.004;2023-07-02T13:25:18;6.80;;;2.35;;
52564;SDS011;38460;53.106;7.004;2023-07-02T13:27:43;6.55;;;2.55;;
52564;SDS011;38460;53.106;7.004;2023-07-02T13:30:09;6.20;;;2.88;;
52564;SDS011;38460;53.106;7.004;2023-07-02T13:32:35;8.73;;;2.60;;
52564;SDS011;38460;53.106;7.004;2023-07-02T13:35:01;6.45;;;2.80;;
52564;SDS011;38460;53.106;7.004;2023-07-02T13:37:27;7.60;;;2.88;;
52564;SDS011;38460;53.106;7.004;2023-07-02T13:39:52;6.30;;;2.85;;
52564;SDS011;38460;53.106;7.004;2023-07-02T13:42:18;6.53;;;3.05;;
52564;SDS011;38460;53.106;7.004;2023-07-02T13:44:44;7.22;;;3.13;;
52564;SDS011;38460;53.106;7.004;2023-07-02T13:47:10;7.22;;;3.33;;
52564;SDS011;38460;53.106;7.004;2023-07-02T13:49:36;10.02;;;3.55;;
52564;SDS011;38460;53.106;7.004;2023-07-02T13:52:02;10.38;;;3.55;;
52564;SDS011;38460;53.106;7.004;2023-07-02T13:54:28;10.68;;;4.25;;
52564;SDS011;38460;53.106;7.004;2023-07-02T13:56:55;10.02;;;4.32;;
52564;SDS011;38460;53.106;7.004;2023-07-02T13:59:22;6.95;;;3.55;;
52564;SDS011;38460;53.106;7.004;2023-07-02T14:01:48;8.35;;;4.72;;
52564;SDS011;38460;53.106;7.004;2023-07-02T14:04:14;8.55;;;4.07;;
52564;SDS011;38460;53.106;7.004;2023-07-02T14:06:41;10.82;;;4.35;;
52564;SDS011;38460;53.106;7.004;2023-07-02T14:09:07;7.82;;;3.85;;
52564;SDS011;38460;53.106;7.004;2023-07-02T14:11:34;7.80;;;4.28;;
52564;SDS011;38460;53.106;7.004;2023-07-02T14:14:02;10.93;;;3.97;;
52564;SDS011;38460;53.106;7.004;2023-07-02T14:16:28;6.68;;;4.00;;
52564;SDS011;38460;53.106;7.004;2023-07-02T14:18:54;10.13;;;4.38;;
52564;SDS011;38460;53.106;7.004;2023-07-02T14:21:19;7.72;;;3.78;;
52564;SDS011;38460;53.106;7.004;2023-07-02T14:23:45;9.43;;;3.97;;
52564;SDS011;38460;53.106;7.004;2023-07-02T14:26:11;8.43;;;3.60;;
52564;SDS011;38460;53.106;7.004;2023-07-02T14:28:37;11.35;;;4.30;;
52564;SDS011;38460;53.106;7.004;2023-07-02T14:31:03;6.45;;;4.10;;
52564;SDS011;38460;53.106;7.004;2023-07-02T14:33:31;11.90;;;4.47;;
52564;SDS011;38460;53.106;7.004;2023-07-02T14:35:59;7.15;;;4.07;;
52564;SDS011;38460;53.106;7.004;2023-07-02T14:38:26;13.32;;;4.88;;
52564;SDS011;38460;53.106;7.004;2023-07-02T14:40:53;12.40;;;4.35;;
52564;SDS011;38460;53.106;7.004;2023-07-02T14:43:19;9.55;;;4.20;;